KDNL/DNL METAR and TAF weather

Enter ICAO airport designator
Station Type Date Time Source
KDNL METAR 2021/09/25 02:53 UTC NOAA

KDNL 250253Z AUTO 01004KT 10SM CLR 19/12 A3010 RMK AO2 SLP191 T01890122 51012


Station Type Date Time Source
KDNL Decoded METAR 2021/09/25 02:53 UTC NOAA

AUGUSTA DANIEL FIELD, GA, United States (KDNL) 33-28N 82-02W 130M
Sep 24, 2021 - 10:53 PM EDT / 2021.09.25 0253 UTC
Wind: from the N (010 degrees) at 5 MPH (4 KT):0
Visibility: 10 mile(s):0
Sky conditions: clear
Temperature: 66.0 F (18.9 C)
Dew Point: 54.0 F (12.2 C)
Relative Humidity: 65%
Pressure (altimeter): 30.1 in. Hg (1019 hPa)
Pressure tendency: 0.04 inches (1.2 hPa) higher than three hours ago
ob: KDNL 250253Z AUTO 01004KT 10SM CLR 19/12 A3010 RMK AO2 SLP191 T01890122 51012
cycle: 3

Station Type Date Time Source
KDNL TAF 2021/09/25 01:33 UTC NOAA

TAF
AMD KDNL 250230Z 2501/2524 VRB03KT P6SM SKC

Example: see airport list